Horsepen, Virginia
Current Conditions -  °F | °C
As of 10:52 AM on Monday 26 Jan 2015 (Local Time) from KBLF Reporting Station
Light Rain Light Rain  
Wind Chill: 36°   Ceiling: 800
Heat Index: 39°   Visibility: 10mi
Dew Point: 33°   Wind: 5mph
Humidity: 79%   Direction: 280°W
Pressure: 29.65"   Gusts: NA
Location:  37.23°N, 81.52°W
Report Text: KBLF 261552Z AUTO 28004KT 10SM -RA OVC008 04/01 A2965 RMK AO2 RAB33 CIG 005V010 SLP039 P0000 T00390006
Loading
Personal Weather Stations






























Interactive Weather Map New forecast layout! Learn more

10-Day Weather Forecast

Advertisements
Track Severe Weather on mobile